Time;durP1;ratioP1;P1;durP2;ratioP2;P2;SDS_P1;SDS_P2;PMS_P1;PMS_P2;Temp;Humidity;BMP_temperature;BMP_pressure;BME280_temperature;BME280_humidity;BME280_pressure;Samples;Min_cycle;Max_cycle;Signal;HPM_P1;HPM_P2
2022/01/30 00:00:08;;;;;;;5.30;2.50;;;16.30;58.60;17.00;101707.00;;;;5007911;28;20172;-48
2022/01/30 00:02:33;;;;;;;4.53;2.40;;;16.30;58.60;17.00;101711.00;;;;5007155;28;20186;-50
2022/01/30 00:04:59;;;;;;;4.00;2.43;;;16.40;58.70;17.00;101716.00;;;;5006276;28;20199;-50
2022/01/30 00:07:25;;;;;;;2.87;2.23;;;16.30;58.70;17.00;101721.00;;;;5006439;28;20179;-48
2022/01/30 00:09:51;;;;;;;5.30;2.50;;;16.30;58.80;17.00;101711.00;;;;5006376;28;20199;-48
2022/01/30 00:12:19;;;;;;;3.83;2.50;;;16.30;58.90;17.10;101726.00;;;;5020864;28;20616;-48
2022/01/30 00:14:45;;;;;;;4.63;2.60;;;16.20;58.70;17.10;101719.00;;;;5049596;28;20177;-51
2022/01/30 00:17:18;;;;;;;3.40;2.37;;;16.30;58.50;17.10;101721.00;;;;5061559;28;20767;-49
2022/01/30 00:20:05;;;;;;;3.23;2.10;;;16.30;58.30;17.20;101716.00;;;;5045978;28;20221;-50
2022/01/30 00:25:02;;;;;;;3.67;2.50;;;16.10;58.30;17.20;101723.00;;;;5045683;28;20678;-51
2022/01/30 00:27:34;;;;;;;3.47;2.37;;;16.10;58.50;17.10;101733.00;;;;5045826;28;20171;-50
2022/01/30 00:30:02;;;;;;;4.13;2.57;;;16.10;58.70;17.10;101736.00;;;;5045902;28;20162;-49
2022/01/30 00:32:27;;;;;;;3.73;2.50;;;16.10;58.30;17.20;101738.00;;;;5045566;28;20185;-50
2022/01/30 00:34:53;;;;;;;3.23;2.27;;;16.10;58.70;17.10;101737.00;;;;5045347;28;20603;-49
2022/01/30 00:37:19;;;;;;;3.13;2.40;;;16.10;58.60;17.10;101735.00;;;;5045824;28;20174;-48
2022/01/30 00:39:44;;;;;;;3.33;2.33;;;16.10;58.30;17.10;101755.00;;;;5045269;28;20205;-50
2022/01/30 00:42:10;;;;;;;3.13;2.17;;;16.10;58.50;17.10;101745.00;;;;5045785;28;20312;-49
2022/01/30 00:44:36;;;;;;;3.23;2.20;;;16.00;58.60;16.90;101744.00;;;;5045611;28;20198;-48
2022/01/30 00:47:03;;;;;;;2.50;2.10;;;16.10;58.30;17.10;101744.00;;;;5045420;28;20177;-48
2022/01/30 00:49:29;;;;;;;3.47;2.20;;;16.00;58.80;17.10;101757.00;;;;5045686;28;20277;-49
2022/01/30 00:51:55;;;;;;;3.10;2.17;;;16.00;58.40;17.10;101767.00;;;;5045284;28;20305;-50
2022/01/30 00:54:20;;;;;;;5.10;2.53;;;15.90;58.30;17.10;101767.00;;;;5045291;28;20178;-50
2022/01/30 00:56:46;;;;;;;3.13;2.37;;;15.90;58.30;17.00;101775.00;;;;5044772;28;20181;-49
2022/01/30 00:59:12;;;;;;;2.70;2.23;;;15.90;58.40;17.00;101763.00;;;;5045437;28;20198;-49
2022/01/30 01:01:38;;;;;;;3.13;2.10;;;15.80;58.30;17.00;101753.00;;;;5052988;28;20178;-51
2022/01/30 01:04:04;;;;;;;3.93;2.43;;;15.90;58.30;17.00;101756.00;;;;5050384;28;20229;-49
2022/01/30 01:06:29;;;;;;;3.03;2.17;;;15.80;58.50;17.00;101759.00;;;;5049391;28;20202;-50
2022/01/30 01:09:01;;;;;;;3.27;2.33;;;15.80;58.70;17.00;101769.00;;;;5049028;28;20466;-50
2022/01/30 01:11:56;;;;;;;3.47;2.27;;;15.70;58.60;16.90;101774.00;;;;5049222;28;20194;-49
2022/01/30 01:20:56;;;;;;;3.33;2.40;;;15.70;58.50;16.90;101771.00;;;;5048344;28;20186;-48
2022/01/30 01:25:17;;;;;;;3.40;2.10;;;15.60;58.70;16.80;101775.00;;;;5048127;28;20201;-49
2022/01/30 01:27:43;;;;;;;2.60;2.13;;;15.60;58.70;16.80;101778.00;;;;5047788;28;20170;-51
2022/01/30 01:30:09;;;;;;;3.63;2.20;;;15.60;58.60;16.80;101770.00;;;;5047780;28;20174;-50
2022/01/30 01:32:35;;;;;;;3.33;2.17;;;15.60;58.70;16.80;101788.00;;;;5048158;28;20670;-49
2022/01/30 01:35:01;;;;;;;3.17;2.20;;;15.50;58.70;16.80;101767.00;;;;5047783;28;20182;-49
2022/01/30 01:37:27;;;;;;;3.57;2.23;;;15.50;58.90;16.80;101769.00;;;;5047975;28;20174;-48
2022/01/30 01:39:52;;;;;;;3.03;2.30;;;15.40;58.80;16.70;101765.00;;;;5047268;28;20190;-49
2022/01/30 01:42:18;;;;;;;4.17;2.30;;;15.40;58.90;16.70;101776.00;;;;5048214;28;20182;-50
2022/01/30 01:44:51;;;;;;;3.30;2.33;;;15.50;59.00;16.70;101787.00;;;;5047853;28;20798;-50
2022/01/30 01:47:20;;;;;;;3.77;2.37;;;15.40;58.80;16.70;101769.00;;;;5047895;28;20174;-49
2022/01/30 01:49:47;;;;;;;2.87;2.10;;;15.50;59.00;16.70;101764.00;;;;5047280;28;20213;-49
2022/01/30 01:52:19;;;;;;;3.60;2.20;;;15.50;58.80;16.70;101765.00;;;;5047631;28;20177;-49
2022/01/30 01:54:55;;;;;;;2.77;2.10;;;15.40;58.80;16.60;101764.00;;;;5047810;28;20177;-48
2022/01/30 01:57:22;;;;;;;2.97;2.13;;;15.50;58.80;16.60;101761.00;;;;5060822;28;20200;-50
2022/01/30 01:59:48;;;;;;;3.60;2.50;;;15.40;58.80;16.60;101753.00;;;;5050207;28;20704;-49
2022/01/30 02:02:13;;;;;;;3.90;2.33;;;15.40;58.90;16.60;101758.00;;;;5047473;28;20178;-50
2022/01/30 02:04:40;;;;;;;3.53;2.03;;;15.40;58.80;16.60;101759.00;;;;5047069;28;20983;-50
2022/01/30 02:07:36;;;;;;;4.47;2.50;;;15.40;58.90;16.60;101758.00;;;;5047020;28;20163;-56
2022/01/30 02:09:55;;;;;;;3.90;2.30;;;15.40;58.90;16.60;101759.00;;;;5047058;28;20203;-50
2022/01/30 02:12:25;;;;;;;3.53;2.37;;;15.30;58.90;16.50;101764.00;;;;5048309;28;20178;-50
2022/01/30 02:15:28;;;;;;;3.47;2.30;;;15.30;59.00;16.50;101765.00;;;;5064681;28;20174;-50
2022/01/30 02:23:58;;;;;;;3.53;2.30;;;15.30;59.40;16.50;101781.00;;;;5047582;28;20173;-49
2022/01/30 02:26:18;;;;;;;3.97;2.33;;;15.30;59.40;16.40;101708.00;;;;5045928;28;20185;-51
2022/01/30 02:28:43;;;;;;;2.93;2.30;;;15.20;59.50;16.40;101796.00;;;;5046585;28;20573;-49
2022/01/30 02:31:13;;;;;;;3.43;2.47;;;15.20;59.20;16.40;101791.00;;;;5046601;28;20170;-50
2022/01/30 02:33:40;;;;;;;2.40;2.03;;;15.20;59.50;16.40;101803.00;;;;5046880;28;20224;-50
2022/01/30 02:36:06;;;;;;;3.37;2.17;;;15.20;59.40;16.40;101794.00;;;;5046737;28;20586;-49
2022/01/30 02:38:32;;;;;;;3.23;2.20;;;15.20;59.40;16.40;101812.00;;;;5046702;28;20248;-49
2022/01/30 02:40:58;;;;;;;3.00;2.30;;;15.20;59.40;16.40;101804.00;;;;5046669;28;20181;-50
2022/01/30 02:43:30;;;;;;;3.33;2.37;;;15.20;59.40;16.40;101803.00;;;;5046651;28;20182;-50
2022/01/30 02:46:08;;;;;;;2.83;2.23;;;15.20;59.40;16.40;101812.00;;;;5046640;28;20526;-49
2022/01/30 02:48:54;;;;;;;3.97;2.60;;;15.20;59.30;16.40;101819.00;;;;5046531;28;20233;-49
2022/01/30 02:51:22;;;;;;;2.73;2.03;;;15.10;59.20;16.30;101813.00;;;;5046361;28;20161;-50
2022/01/30 02:54:02;;;;;;;3.67;2.30;;;15.10;59.20;16.30;101815.00;;;;5046546;28;20166;-50
2022/01/30 02:56:28;;;;;;;3.23;2.20;;;15.10;59.10;16.30;101818.00;;;;5046455;28;20189;-49
2022/01/30 02:58:54;;;;;;;2.77;2.20;;;15.10;59.20;16.30;101820.00;;;;5046298;28;20852;-49
2022/01/30 03:01:19;;;;;;;3.40;2.20;;;15.00;59.20;16.30;101827.00;;;;5045045;28;20174;-49
2022/01/30 03:03:45;;;;;;;3.10;2.20;;;15.10;59.20;16.20;101825.00;;;;5046067;28;20205;-50
2022/01/30 03:06:11;;;;;;;3.37;2.30;;;15.00;59.20;16.20;101821.00;;;;5046149;28;20174;-49
2022/01/30 03:08:37;;;;;;;2.70;2.10;;;15.00;59.20;16.20;101822.00;;;;5045938;28;20194;-48
2022/01/30 03:11:03;;;;;;;3.67;2.23;;;15.00;59.40;16.20;101821.00;;;;5046635;28;20300;-50
2022/01/30 03:13:29;;;;;;;3.43;2.30;;;15.00;59.30;16.20;101803.00;;;;5049319;28;20178;-47
2022/01/30 03:15:56;;;;;;;3.23;2.40;;;14.90;59.40;16.20;101807.00;;;;5046716;28;20177;-49
2022/01/30 03:18:22;;;;;;;3.10;2.20;;;14.90;59.40;16.20;101803.00;;;;5046261;28;20213;-49
2022/01/30 03:20:48;;;;;;;3.43;2.50;;;14.80;59.40;16.20;101805.00;;;;5045460;28;20317;-48
2022/01/30 03:23:14;;;;;;;3.60;2.30;;;14.80;59.60;16.20;101695.00;;;;5045630;28;20244;-48
2022/01/30 03:25:40;;;;;;;3.90;2.30;;;14.80;59.60;16.10;101809.00;;;;5045276;28;20652;-47
2022/01/30 03:28:05;;;;;;;2.90;2.13;;;14.80;59.60;16.10;101817.00;;;;5045677;28;20194;-49
2022/01/30 03:30:32;;;;;;;2.23;2.00;;;14.80;59.60;16.10;101808.00;;;;5045905;28;20182;-50
2022/01/30 03:32:58;;;;;;;3.83;2.40;;;14.80;59.60;16.10;101801.00;;;;5045631;28;20249;-50
2022/01/30 03:35:23;;;;;;;3.27;2.30;;;14.70;59.50;16.10;101809.00;;;;5046377;28;20182;-49
2022/01/30 03:37:49;;;;;;;2.83;2.10;;;14.70;59.50;16.00;101802.00;;;;5054598;28;20178;-50
2022/01/30 03:40:15;;;;;;;4.00;2.43;;;14.70;59.50;16.00;101811.00;;;;5053011;28;20634;-50
2022/01/30 03:42:40;;;;;;;3.63;2.43;;;14.70;59.50;16.00;101811.00;;;;5045599;28;20174;-49
2022/01/30 03:45:07;;;;;;;4.00;2.27;;;14.70;59.60;16.00;101823.00;;;;5045156;28;20202;-47
2022/01/30 03:47:33;;;;;;;2.90;2.20;;;14.60;59.60;16.00;101825.00;;;;5044439;28;20184;-48
2022/01/30 03:49:58;;;;;;;3.57;2.60;;;14.70;59.70;16.00;101823.00;;;;5045324;28;20170;-49
2022/01/30 03:52:24;;;;;;;5.87;2.60;;;14.60;59.70;15.90;101818.00;;;;5045461;28;20177;-49
2022/01/30 03:54:50;;;;;;;3.00;2.27;;;14.60;59.70;15.90;101833.00;;;;5045761;28;20182;-50
2022/01/30 03:57:15;;;;;;;3.70;2.33;;;14.60;59.60;15.90;101838.00;;;;5045139;28;20193;-50
2022/01/30 03:59:41;;;;;;;3.70;2.10;;;14.60;59.50;15.90;101818.00;;;;5045401;28;20202;-50
2022/01/30 04:02:07;;;;;;;4.37;2.63;;;14.60;59.60;15.90;101825.00;;;;5045585;28;20178;-50
2022/01/30 04:04:33;;;;;;;3.73;2.30;;;14.60;59.70;15.90;101834.00;;;;5045258;28;20205;-48
2022/01/30 04:06:59;;;;;;;4.53;2.50;;;14.50;59.60;15.90;101826.00;;;;5044873;28;20174;-48
2022/01/30 04:09:26;;;;;;;4.23;2.50;;;14.60;59.70;15.90;101831.00;;;;5044892;28;20216;-49
2022/01/30 04:11:52;;;;;;;3.93;2.27;;;14.50;59.80;15.80;101835.00;;;;5045178;28;20175;-48
2022/01/30 04:14:18;;;;;;;3.17;2.40;;;14.60;59.70;15.80;101831.00;;;;5045315;28;20178;-50
2022/01/30 04:16:43;;;;;;;3.17;2.20;;;14.50;59.60;15.80;101836.00;;;;5045395;28;20547;-50
2022/01/30 04:19:09;;;;;;;3.30;2.30;;;14.50;59.60;15.80;101834.00;;;;5045233;28;20846;-50
2022/01/30 04:21:35;;;;;;;3.77;2.50;;;14.50;59.50;15.80;101845.00;;;;5044717;28;20186;-50
2022/01/30 04:24:01;;;;;;;3.03;2.30;;;14.50;59.40;15.80;101843.00;;;;5044042;28;20225;-47
2022/01/30 04:26:26;;;;;;;3.13;2.30;;;14.50;59.60;15.80;101844.00;;;;5044965;28;20175;-51
2022/01/30 04:28:52;;;;;;;3.30;2.40;;;14.40;59.80;15.80;101837.00;;;;5044795;28;20217;-48
2022/01/30 04:31:18;;;;;;;3.73;2.27;;;14.60;60.50;15.70;101844.00;;;;5048592;28;20186;-49
2022/01/30 04:33:44;;;;;;;4.60;2.30;;;14.50;59.50;15.70;101846.00;;;;5049970;28;20179;-50
2022/01/30 04:36:15;;;;;;;9.10;2.40;;;14.50;59.50;15.70;101863.00;;;;5050207;28;20179;-48
2022/01/30 04:57:43;;;;;;;8.23;3.00;;;14.50;59.00;15.70;101881.00;;;;5048619;28;20285;-49
2022/01/30 05:00:26;;;;;;;5.17;2.60;;;14.50;58.90;15.70;101885.00;;;;5048392;28;20162;-49
2022/01/30 05:08:12;;;;;;;6.57;2.93;;;14.50;58.70;15.60;101888.00;;;;5056159;28;20255;-49
2022/01/30 05:10:38;;;;;;;5.13;2.67;;;14.50;58.50;15.60;101887.00;;;;5028490;28;20179;-50
2022/01/30 05:13:07;;;;;;;4.87;2.63;;;14.50;58.70;15.60;101888.00;;;;5028371;28;20356;-50
2022/01/30 05:15:33;;;;;;;6.30;2.63;;;14.40;58.70;15.60;101898.00;;;;5028046;28;20167;-48
2022/01/30 05:17:59;;;;;;;7.20;2.50;;;14.40;58.70;15.60;101886.00;;;;5028514;28;20203;-52
2022/01/30 05:20:25;;;;;;;4.30;2.43;;;14.40;58.80;15.60;101896.00;;;;5028075;28;20672;-50
2022/01/30 05:22:51;;;;;;;7.80;2.90;;;14.40;58.90;15.60;101902.00;;;;5026757;28;20258;-51
2022/01/30 05:25:18;;;;;;;6.90;3.00;;;14.40;58.80;15.60;101905.00;;;;5028002;28;20199;-50
2022/01/30 05:27:44;;;;;;;6.93;3.03;;;14.40;58.80;15.60;101913.00;;;;5027280;28;20526;-50
2022/01/30 05:30:10;;;;;;;10.77;3.30;;;14.40;58.70;15.60;101913.00;;;;5026626;28;20178;-52
2022/01/30 05:32:36;;;;;;;7.63;3.47;;;14.40;58.80;15.60;101919.00;;;;5026611;28;20182;-50
2022/01/30 05:35:02;;;;;;;11.17;3.87;;;14.40;58.90;15.60;101919.00;;;;5026543;28;20197;-51
2022/01/30 05:37:27;;;;;;;15.07;3.90;;;14.40;58.80;15.60;101919.00;;;;5028143;28;20175;-49
2022/01/30 05:39:53;;;;;;;10.90;3.50;;;14.40;58.90;15.60;101915.00;;;;5027573;28;20698;-50
2022/01/30 05:42:19;;;;;;;12.00;3.73;;;14.30;59.00;15.50;101917.00;;;;5029389;28;20642;-50
2022/01/30 05:44:55;;;;;;;11.10;3.53;;;14.40;59.10;15.50;101925.00;;;;5027453;28;20261;-49
2022/01/30 05:47:28;;;;;;;10.73;3.80;;;14.40;59.00;15.50;101924.00;;;;5028116;28;20159;-48
2022/01/30 05:49:54;;;;;;;11.93;3.90;;;14.40;58.90;15.50;101923.00;;;;5028455;28;20589;-50
2022/01/30 05:52:21;;;;;;;9.87;3.43;;;14.40;59.00;15.50;101924.00;;;;5047658;28;20198;-49
2022/01/30 05:54:48;;;;;;;7.93;3.40;;;14.40;58.80;15.50;101924.00;;;;5046749;28;20664;-51
2022/01/30 05:57:13;;;;;;;8.13;3.50;;;14.40;58.80;15.30;101929.00;;;;5047470;28;20181;-49
2022/01/30 05:59:39;;;;;;;6.17;3.40;;;14.40;58.80;15.50;101931.00;;;;5047534;28;20204;-49
2022/01/30 06:02:05;;;;;;;8.37;3.47;;;14.40;58.70;15.50;101927.00;;;;5047014;28;20177;-50
2022/01/30 06:04:31;;;;;;;9.07;3.47;;;14.30;58.60;15.50;101932.00;;;;5046752;28;20401;-51
2022/01/30 06:06:57;;;;;;;9.17;3.30;;;14.30;58.70;15.50;101941.00;;;;5047238;28;20163;-51
2022/01/30 06:09:23;;;;;;;7.63;3.20;;;14.30;58.80;15.50;101936.00;;;;5046233;28;20269;-51
2022/01/30 06:11:51;;;;;;;9.80;3.27;;;14.30;58.80;15.50;101946.00;;;;5046670;28;20170;-50
2022/01/30 06:14:21;;;;;;;6.43;3.10;;;14.30;58.70;15.50;101941.00;;;;5025741;28;20258;-50
2022/01/30 06:16:49;;;;;;;8.60;3.33;;;14.30;58.70;15.50;101941.00;;;;5026317;28;20832;-50
2022/01/30 06:19:18;;;;;;;6.97;3.10;;;14.30;58.80;15.40;101949.00;;;;5025821;28;20244;-47
2022/01/30 06:21:46;;;;;;;5.93;3.03;;;14.30;58.80;15.50;101959.00;;;;5027013;28;20270;-49
2022/01/30 06:24:12;;;;;;;8.50;3.63;;;14.30;58.70;15.40;101959.00;;;;5026515;28;20700;-49
2022/01/30 06:26:38;;;;;;;5.83;3.03;;;14.30;58.60;15.40;101974.00;;;;5027991;28;20163;-49
2022/01/30 06:29:03;;;;;;;7.27;3.00;;;14.30;58.50;15.40;101971.00;;;;5026927;28;20218;-50
2022/01/30 06:31:29;;;;;;;5.50;2.73;;;14.30;58.60;15.40;101973.00;;;;5028211;28;20714;-50
2022/01/30 06:33:55;;;;;;;7.73;3.10;;;14.30;58.50;15.40;101978.00;;;;5025490;28;20532;-50
2022/01/30 06:36:21;;;;;;;6.87;3.03;;;14.20;58.50;15.40;101980.00;;;;5026538;28;20257;-50
2022/01/30 06:38:47;;;;;;;5.83;3.07;;;14.20;58.50;15.40;101977.00;;;;5026500;28;20244;-49
2022/01/30 06:41:15;;;;;;;5.63;2.80;;;14.20;58.60;15.40;101977.00;;;;5026546;28;20167;-49
2022/01/30 06:43:41;;;;;;;5.70;3.00;;;14.20;58.50;15.40;101990.00;;;;5026620;28;20207;-49
2022/01/30 06:46:10;;;;;;;5.17;2.90;;;14.20;58.40;15.40;101990.00;;;;5026559;28;20643;-48
2022/01/30 06:48:36;;;;;;;6.40;2.97;;;14.20;58.40;15.40;101987.00;;;;5026329;28;20280;-50
2022/01/30 06:51:01;;;;;;;6.27;2.97;;;14.20;58.40;15.30;101995.00;;;;5026450;28;20649;-51
2022/01/30 06:53:27;;;;;;;6.10;3.00;;;14.20;58.50;15.30;101995.00;;;;5037077;28;20175;-51
2022/01/30 06:55:54;;;;;;;6.10;2.93;;;14.10;58.50;15.30;101992.00;;;;5050708;28;20418;-51
2022/01/30 06:58:19;;;;;;;7.37;3.27;;;14.10;58.60;15.30;101993.00;;;;5039286;28;20202;-50
2022/01/30 07:00:45;;;;;;;4.43;2.57;;;14.10;58.50;15.30;102004.00;;;;5026244;28;20842;-48
2022/01/30 07:03:11;;;;;;;5.80;3.00;;;14.10;58.40;15.30;102006.00;;;;5024706;28;20167;-50
2022/01/30 07:05:37;;;;;;;5.17;2.90;;;14.10;58.40;15.30;102006.00;;;;5024640;28;20249;-50
2022/01/30 07:08:02;;;;;;;5.03;2.53;;;14.10;58.40;15.30;102011.00;;;;5026316;28;20195;-50
2022/01/30 07:10:28;;;;;;;4.80;2.63;;;14.10;58.40;15.30;102011.00;;;;5026150;28;20748;-50
2022/01/30 07:12:54;;;;;;;6.17;2.93;;;14.10;58.30;15.30;102016.00;;;;5025931;28;20171;-51
2022/01/30 07:15:20;;;;;;;6.33;2.77;;;14.10;58.40;15.30;102010.00;;;;5025396;28;20178;-50
2022/01/30 07:17:45;;;;;;;5.33;2.73;;;14.10;58.20;15.30;102010.00;;;;5025996;28;20175;-50
2022/01/30 07:20:11;;;;;;;3.50;2.50;;;14.10;58.20;15.30;102012.00;;;;5026074;28;20724;-48
2022/01/30 07:22:37;;;;;;;3.67;2.20;;;14.10;58.40;15.20;102006.00;;;;5025644;28;20665;-49
2022/01/30 07:25:05;;;;;;;4.27;2.60;;;14.10;58.40;15.20;102005.00;;;;5025360;28;20198;-48
2022/01/30 07:27:31;;;;;;;4.97;2.57;;;14.00;58.40;15.20;101998.00;;;;5040591;28;20166;-49
2022/01/30 07:29:57;;;;;;;4.50;2.37;;;14.00;58.30;15.20;101993.00;;;;5025367;28;20179;-49
2022/01/30 07:32:22;;;;;;;4.27;2.33;;;14.00;58.30;15.20;101998.00;;;;5025500;28;20610;-51
2022/01/30 07:34:51;;;;;;;3.67;2.30;;;14.00;58.30;15.20;102009.00;;;;5025377;28;20175;-55
2022/01/30 07:37:20;;;;;;;4.37;2.00;;;14.00;58.30;15.20;102009.00;;;;5025612;28;20229;-50
2022/01/30 07:39:46;;;;;;;4.90;2.53;;;14.00;58.30;15.20;102010.00;;;;5023866;28;20681;-50
2022/01/30 07:42:12;;;;;;;5.47;2.50;;;14.00;58.40;15.10;102016.00;;;;5024540;28;20170;-50
2022/01/30 07:44:38;;;;;;;3.83;2.37;;;13.90;58.40;15.10;102017.00;;;;5025380;28;20756;-51
2022/01/30 07:47:04;;;;;;;3.83;2.40;;;13.90;58.30;15.10;102011.00;;;;5025241;28;20210;-50
2022/01/30 07:49:30;;;;;;;4.77;2.60;;;14.00;58.30;15.10;102020.00;;;;5040412;28;20191;-49
2022/01/30 07:51:56;;;;;;;4.33;2.73;;;13.90;58.20;15.10;102031.00;;;;5025378;28;20697;-50
2022/01/30 07:54:21;;;;;;;4.67;2.60;;;13.90;58.30;15.10;102028.00;;;;5039676;28;20235;-50
2022/01/30 07:56:47;;;;;;;4.13;2.60;;;13.90;58.30;15.10;102027.00;;;;5041828;28;20513;-51
2022/01/30 07:59:13;;;;;;;4.37;2.27;;;13.80;58.30;15.10;102035.00;;;;5026537;28;20361;-50
2022/01/30 08:01:38;;;;;;;3.90;2.40;;;13.90;58.50;15.10;102038.00;;;;5025863;28;20654;-51
2022/01/30 08:04:06;;;;;;;3.53;2.20;;;13.90;58.40;15.10;102041.00;;;;5024685;28;20190;-49
2022/01/30 08:06:35;;;;;;;4.10;2.53;;;13.90;58.30;15.00;102049.00;;;;5025236;28;20175;-51
2022/01/30 08:09:01;;;;;;;6.00;2.50;;;13.80;58.30;15.00;102050.00;;;;5023879;28;20187;-51
2022/01/30 08:11:27;;;;;;;4.50;2.63;;;13.80;58.30;15.00;102052.00;;;;5025522;28;20172;-49
2022/01/30 08:13:52;;;;;;;4.57;2.60;;;13.80;58.20;15.00;102055.00;;;;5028806;28;20198;-49
2022/01/30 08:16:20;;;;;;;4.33;2.40;;;13.90;58.30;15.00;102049.00;;;;5028983;28;20167;-49
2022/01/30 08:18:45;;;;;;;2.73;2.37;;;13.80;58.30;15.00;102054.00;;;;5029178;28;20225;-50
2022/01/30 08:21:11;;;;;;;3.50;2.30;;;13.80;58.30;15.00;102054.00;;;;5029350;28;20665;-50
2022/01/30 08:23:37;;;;;;;3.47;2.30;;;13.80;58.30;15.00;102076.00;;;;5028894;28;20273;-49
2022/01/30 08:26:03;;;;;;;4.20;2.50;;;13.80;58.30;15.00;102052.00;;;;5029029;28;20167;-49
2022/01/30 08:28:28;;;;;;;4.90;2.60;;;13.80;58.20;15.00;102058.00;;;;5029110;28;20195;-50
2022/01/30 08:30:54;;;;;;;4.00;2.47;;;13.70;58.20;15.00;102071.00;;;;5027689;28;20182;-50
2022/01/30 08:33:20;;;;;;;4.20;2.50;;;13.80;58.30;15.00;102073.00;;;;5029155;28;20183;-51
2022/01/30 08:35:46;;;;;;;3.63;2.33;;;13.80;58.30;14.90;102076.00;;;;5028933;28;20647;-48
2022/01/30 08:38:15;;;;;;;3.70;2.33;;;13.70;58.30;15.00;102085.00;;;;5027827;28;20225;-50
2022/01/30 08:40:40;;;;;;;3.87;2.20;;;13.80;58.30;14.90;102069.00;;;;5028659;28;20171;-50
2022/01/30 08:43:06;;;;;;;3.83;2.17;;;13.70;58.30;14.90;102077.00;;;;5028929;28;20266;-51
2022/01/30 08:45:32;;;;;;;3.23;2.03;;;13.70;58.30;14.90;102082.00;;;;5028424;28;20210;-49
2022/01/30 08:47:57;;;;;;;5.20;2.60;;;13.70;58.30;14.90;102085.00;;;;5028917;28;20195;-50
2022/01/30 08:50:24;;;;;;;2.97;2.23;;;13.70;58.30;14.90;102082.00;;;;5028586;28;20202;-49
2022/01/30 08:52:50;;;;;;;3.07;2.13;;;13.70;58.30;14.90;102072.00;;;;5028852;28;20665;-49
2022/01/30 08:55:16;;;;;;;3.73;2.40;;;13.70;58.50;14.90;102076.00;;;;5029620;28;20174;-50
2022/01/30 08:57:42;;;;;;;3.30;2.40;;;13.70;58.30;14.90;102088.00;;;;5028238;28;20198;-51
2022/01/30 09:00:11;;;;;;;3.33;2.10;;;13.70;58.50;14.80;102089.00;;;;5027323;28;20521;-49
2022/01/30 09:02:38;;;;;;;4.70;2.40;;;13.60;58.50;14.80;102083.00;;;;5028439;28;20913;-50
2022/01/30 09:05:08;;;;;;;4.47;2.40;;;13.70;58.60;14.80;102088.00;;;;5027138;28;20210;-51
2022/01/30 09:07:34;;;;;;;4.83;2.40;;;13.70;58.50;14.80;102082.00;;;;5028271;28;20152;-50
2022/01/30 09:10:00;;;;;;;6.07;2.23;;;13.70;58.60;14.80;102083.00;;;;5027157;28;20229;-49
2022/01/30 09:12:26;;;;;;;6.17;2.30;;;13.70;58.60;14.80;102087.00;;;;5029342;28;20195;-49
2022/01/30 09:14:51;;;;;;;4.70;2.50;;;13.60;58.60;14.80;102084.00;;;;5028715;28;20225;-49
2022/01/30 09:17:18;;;;;;;5.80;2.40;;;13.60;58.60;14.80;102092.00;;;;5028392;28;20209;-49
2022/01/30 09:19:45;;;;;;;4.43;2.67;;;13.70;58.70;14.80;102086.00;;;;5028226;28;20740;-50
2022/01/30 09:22:13;;;;;;;6.07;2.40;;;13.70;58.70;14.80;102090.00;;;;5028552;28;20179;-50
2022/01/30 09:24:39;;;;;;;5.50;2.80;;;13.60;58.60;14.80;102090.00;;;;5027381;28;20199;-49
2022/01/30 09:27:06;;;;;;;3.80;2.33;;;13.70;58.60;14.80;102097.00;;;;5028434;28;20551;-50
2022/01/30 09:29:32;;;;;;;4.67;2.40;;;13.60;58.40;14.80;102089.00;;;;5027221;28;20559;-50
2022/01/30 09:31:58;;;;;;;5.17;2.50;;;13.60;58.50;14.80;102096.00;;;;5029064;28;20170;-49
2022/01/30 09:34:24;;;;;;;6.80;2.60;;;13.60;58.70;14.80;102078.00;;;;5049879;28;20162;-49
2022/01/30 09:36:50;;;;;;;5.37;2.20;;;13.50;58.80;14.70;102084.00;;;;5051467;28;20183;-50
2022/01/30 09:39:15;;;;;;;5.43;2.80;;;13.50;59.10;14.70;102080.00;;;;5034455;28;20233;-49
2022/01/30 09:41:42;;;;;;;5.87;2.90;;;13.60;59.00;14.70;102072.00;;;;5028732;28;20174;-49
2022/01/30 09:44:11;;;;;;;7.13;3.00;;;13.60;58.70;14.40;102074.00;;;;5027741;28;20195;-48
2022/01/30 09:46:39;;;;;;;8.93;2.70;;;13.60;58.70;14.70;102068.00;;;;5026914;28;20175;-50
2022/01/30 09:49:06;;;;;;;6.40;3.00;;;13.50;58.90;14.70;102066.00;;;;5029616;28;20195;-48
2022/01/30 09:51:33;;;;;;;7.37;2.70;;;13.50;59.10;14.70;102043.00;;;;5028945;28;20206;-49
2022/01/30 09:53:59;;;;;;;8.80;2.83;;;13.50;60.10;14.60;102055.00;;;;5030527;28;20187;-47
2022/01/30 09:56:25;;;;;;;7.70;3.10;;;13.50;59.80;14.40;102055.00;;;;5030862;28;20198;-48
2022/01/30 09:58:52;;;;;;;5.77;2.70;;;13.50;60.00;14.70;102052.00;;;;5028705;28;20218;-49
2022/01/30 10:01:17;;;;;;;6.77;2.40;;;13.50;60.00;14.60;102053.00;;;;5026669;28;20360;-47
2022/01/30 10:03:43;;;;;;;5.93;2.63;;;13.50;59.90;14.60;102054.00;;;;5026598;28;20186;-48
2022/01/30 10:06:13;;;;;;;5.87;2.57;;;13.50;60.00;14.60;102056.00;;;;5028177;28;20155;-49
2022/01/30 10:08:44;;;;;;;6.50;2.37;;;13.50;60.00;14.60;102059.00;;;;5027629;28;20280;-49
2022/01/30 10:14:14;;;;;;;5.20;2.70;;;13.50;59.80;14.60;102072.00;;;;5026699;28;20178;-49
2022/01/30 10:16:44;;;;;;;6.90;3.00;;;13.60;59.90;14.60;102082.00;;;;5025131;28;20179;-48
2022/01/30 10:19:20;;;;;;;5.17;2.57;;;13.60;59.50;14.60;102072.00;;;;5030571;28;20195;-48
2022/01/30 10:21:47;;;;;;;5.23;2.60;;;13.70;59.20;14.70;102088.00;;;;5010538;28;20194;-48
2022/01/30 10:24:24;;;;;;;6.20;2.60;;;14.00;59.00;14.80;102084.00;;;;5009070;28;20631;-50
2022/01/30 10:26:56;;;;;;;7.67;2.77;;;14.30;58.70;14.90;102081.00;;;;5010040;28;20167;-48
2022/01/30 10:29:27;;;;;;;7.83;3.00;;;14.50;58.30;15.00;102074.00;;;;5010071;28;20203;-48
2022/01/30 10:32:02;;;;;;;12.13;3.33;;;14.60;58.10;15.10;102060.00;;;;5013024;28;20645;-48
2022/01/30 10:34:29;;;;;;;16.67;3.33;;;14.70;57.90;15.10;102063.00;;;;5029806;28;20175;-47
2022/01/30 10:37:19;;;;;;;9.37;3.00;;;14.80;57.90;15.20;102069.00;;;;5028133;28;20666;-49
2022/01/30 10:40:14;;;;;;;10.33;2.90;;;14.90;57.80;15.30;102072.00;;;;5029777;28;20650;-48
2022/01/30 10:42:50;;;;;;;10.63;2.43;;;14.90;57.80;15.40;102073.00;;;;5030354;28;20170;-48
2022/01/30 10:45:19;;;;;;;10.37;2.63;;;15.00;57.80;15.40;102076.00;;;;5037909;28;20191;-49
2022/01/30 10:47:45;;;;;;;5.40;2.60;;;15.10;57.90;15.50;102026.00;;;;5040124;28;20178;-47
2022/01/30 10:50:19;;;;;;;7.87;2.90;;;15.10;57.90;15.50;102065.00;;;;5030233;28;20183;-47
2022/01/30 10:53:04;;;;;;;9.10;2.87;;;15.10;58.10;15.60;102059.00;;;;5030340;28;20183;-47
2022/01/30 10:55:44;;;;;;;5.73;2.93;;;15.20;58.00;15.60;102063.00;;;;5028030;28;20166;-47
2022/01/30 10:58:16;;;;;;;7.77;2.90;;;15.20;57.90;15.70;102060.00;;;;5029402;28;20210;-49
2022/01/30 11:00:45;;;;;;;7.13;2.67;;;15.20;57.70;15.70;102067.00;;;;5029395;28;20692;-49
2022/01/30 11:03:37;;;;;;;8.03;2.63;;;15.30;57.80;15.80;102054.00;;;;5031841;28;20730;-49
2022/01/30 11:06:07;;;;;;;6.13;2.50;;;15.30;57.80;15.80;102064.00;;;;5040382;28;20179;-48
2022/01/30 11:08:34;;;;;;;5.00;2.43;;;15.30;57.80;15.90;102062.00;;;;5030018;28;20558;-48
2022/01/30 11:11:03;;;;;;;6.33;2.73;;;15.40;57.80;15.90;102064.00;;;;5008554;28;20163;-49
2022/01/30 11:13:32;;;;;;;5.80;2.50;;;15.40;57.60;16.00;102068.00;;;;4992502;28;20190;-47
2022/01/30 11:16:56;;;;;;;7.30;2.80;;;15.50;57.80;16.00;102067.00;;;;5009139;28;20183;-48
2022/01/30 11:18:49;;;;;;;6.23;3.10;;;15.60;58.10;16.00;102070.00;;;;5007267;28;20199;-49
2022/01/30 11:21:18;;;;;;;10.93;3.30;;;15.60;59.10;16.10;102075.00;;;;5007411;28;20175;-49
2022/01/30 11:23:43;;;;;;;10.73;3.10;;;15.60;58.90;16.10;102063.00;;;;4991300;28;20663;-48
2022/01/30 11:26:09;;;;;;;11.17;2.73;;;15.70;59.20;16.20;102071.00;;;;4991771;28;20230;-50
2022/01/30 11:28:35;;;;;;;8.57;2.93;;;15.70;59.60;16.20;102060.00;;;;5009612;28;20188;-52
2022/01/30 11:31:01;;;;;;;9.37;3.00;;;15.70;59.50;16.20;102052.00;;;;5012769;28;20179;-49
2022/01/30 11:33:26;;;;;;;8.70;3.37;;;15.80;60.00;16.30;102054.00;;;;4975412;28;20164;-48